createdAt,value
2022-09-15T00:00:08.577Z,99571.97
2022-09-15T00:02:35.110Z,99575.94
2022-09-15T00:05:01.863Z,99570.13
2022-09-15T00:07:28.362Z,99575.72
2022-09-15T00:09:54.754Z,99568.22
2022-09-15T00:12:21.143Z,99570.38
2022-09-15T00:14:47.565Z,99577.19
2022-09-15T00:17:14.138Z,99571.06
2022-09-15T00:19:40.610Z,99578.66
2022-09-15T00:22:07.153Z,99564.25
2022-09-15T00:24:33.523Z,99573.06
2022-09-15T00:26:59.906Z,99578.78
2022-09-15T00:29:26.271Z,99566.84
2022-09-15T00:31:52.717Z,99568.31
2022-09-15T00:34:19.159Z,99566.50
2022-09-15T00:36:45.569Z,99572.91
2022-09-15T00:39:12.316Z,99572.28
2022-09-15T00:41:40.734Z,99567.25
2022-09-15T00:44:16.151Z,99576.59
2022-09-15T00:46:54.826Z,99584.84
2022-09-15T00:49:36.642Z,99579.72
2022-09-15T00:52:07.384Z,99576.81
2022-09-15T00:54:58.656Z,99572.69
2022-09-15T00:57:40.827Z,99573.59
2022-09-15T01:00:11.623Z,99569.84
2022-09-15T01:02:40.051Z,99573.97
2022-09-15T01:05:10.672Z,99576.81
2022-09-15T01:07:47.914Z,99577.44
2022-09-15T01:10:22.383Z,99568.69
2022-09-15T01:12:49.172Z,99571.53
2022-09-15T01:15:16.271Z,99566.50
2022-09-15T01:17:52.522Z,99569.31
2022-09-15T01:20:56.033Z,99567.47
2022-09-15T01:23:56.455Z,99564.78
2022-09-15T01:26:50.285Z,99571.97
2022-09-15T01:29:42.491Z,99585.69
2022-09-15T01:32:35.709Z,99570.63
2022-09-15T01:35:14.850Z,99570.75
2022-09-15T01:38:11.881Z,99568.78
2022-09-15T01:40:58.886Z,99571.75
2022-09-15T01:43:27.845Z,99581.63
2022-09-15T01:45:54.355Z,99574.16
2022-09-15T01:48:25.362Z,99578.69
2022-09-15T01:50:55.993Z,99582.22
2022-09-15T01:53:23.594Z,99572.13
2022-09-15T01:56:01.844Z,99580.03
2022-09-15T01:58:28.250Z,99573.88
2022-09-15T02:01:13.830Z,99571.13
2022-09-15T02:03:55.349Z,99570.91
2022-09-15T02:06:33.727Z,99572.06
2022-09-15T02:09:12.593Z,99569.06
2022-09-15T02:11:49.116Z,99576.66
2022-09-15T02:14:33.736Z,99573.25
2022-09-15T02:17:01.581Z,99568.50
2022-09-15T02:19:34.539Z,99569.06
2022-09-15T02:22:12.704Z,99574.78
2022-09-15T02:24:44.890Z,99582.38
2022-09-15T02:27:24.607Z,99580.09
2022-09-15T02:29:53.806Z,99578.94
2022-09-15T02:32:24.052Z,99582.69
2022-09-15T02:34:52.046Z,99588.06
2022-09-15T02:37:22.887Z,99586.19
2022-09-15T02:39:58.005Z,99580.41
2022-09-15T02:42:30.524Z,99584.25
2022-09-15T02:44:57.844Z,99577.94
2022-09-15T02:47:24.418Z,99570.06
2022-09-15T02:49:51.109Z,99579.06
2022-09-15T02:52:17.800Z,99578.09
2022-09-15T02:54:44.157Z,99577.66
2022-09-15T02:57:10.601Z,99584.69
2022-09-15T02:59:55.601Z,99576.34
2022-09-15T03:02:23.471Z,99579.41
2022-09-15T03:04:50.545Z,99586.00
2022-09-15T03:07:18.564Z,99593.84
2022-09-15T03:09:45.507Z,99595.91
2022-09-15T03:12:12.129Z,99586.19
2022-09-15T03:14:38.797Z,99577.59
2022-09-15T03:17:05.621Z,99585.38
2022-09-15T03:19:32.026Z,99583.53
2022-09-15T03:21:58.426Z,99594.41
2022-09-15T03:24:24.891Z,99593.09
2022-09-15T03:26:51.314Z,99582.94
2022-09-15T03:29:17.729Z,99580.19
2022-09-15T03:31:44.174Z,99581.63
2022-09-15T03:34:10.750Z,99577.97
2022-09-15T03:36:38.202Z,99580.78
2022-09-15T03:39:04.669Z,99578.09
2022-09-15T03:41:31.049Z,99573.31
2022-09-15T03:43:57.651Z,99567.66
2022-09-15T03:46:24.161Z,99571.84
2022-09-15T03:48:50.542Z,99582.19
2022-09-15T03:51:16.953Z,99577.38
2022-09-15T03:53:43.692Z,99578.50
2022-09-15T03:56:10.167Z,99580.78
2022-09-15T03:58:36.618Z,99574.66
2022-09-15T04:01:03.616Z,99562.91
2022-09-15T04:03:31.599Z,99576.16
2022-09-15T04:05:58.018Z,99573.47
2022-09-15T04:08:24.416Z,99574.44
2022-09-15T04:10:50.865Z,99570.53
2022-09-15T04:13:17.263Z,99573.75
2022-09-15T04:15:44.458Z,99566.09
2022-09-15T04:18:10.840Z,99569.16
2022-09-15T04:20:39.707Z,99571.31
2022-09-15T04:23:06.114Z,99577.91
2022-09-15T04:25:32.540Z,99567.94
2022-09-15T04:27:58.962Z,99570.78
2022-09-15T04:30:25.438Z,99577.38
2022-09-15T04:32:52.383Z,99573.00
2022-09-15T04:35:18.829Z,99575.38
2022-09-15T04:37:45.254Z,99577.22
2022-09-15T04:40:11.774Z,99586.81
2022-09-15T04:42:38.341Z,99585.47
2022-09-15T04:45:05.621Z,99578.44
2022-09-15T04:47:32.017Z,99584.28
2022-09-15T04:49:58.537Z,99574.06
2022-09-15T04:52:24.938Z,99576.19
2022-09-15T04:54:51.350Z,99575.78
2022-09-15T04:57:17.782Z,99579.88
2022-09-15T04:59:44.158Z,99580.31
2022-09-15T05:02:10.617Z,99593.56
2022-09-15T05:04:37.052Z,99586.69
2022-09-15T05:07:03.516Z,99592.31
2022-09-15T05:09:30.928Z,99583.44
2022-09-15T05:11:57.699Z,99579.44
2022-09-15T05:14:24.146Z,99588.50
2022-09-15T05:16:50.568Z,99587.50
2022-09-15T05:19:17.015Z,99587.94
2022-09-15T05:21:43.365Z,99593.47
2022-09-15T05:24:09.846Z,99588.31
2022-09-15T05:26:36.212Z,99596.16
2022-09-15T05:29:02.678Z,99592.22
2022-09-15T05:31:31.403Z,99593.34
2022-09-15T05:34:00.733Z,99595.38
2022-09-15T05:36:27.114Z,99593.94
2022-09-15T05:38:56.451Z,99605.50
2022-09-15T05:41:23.848Z,99601.22
2022-09-15T05:43:50.940Z,99596.50
2022-09-15T05:46:18.841Z,99591.09
2022-09-15T05:48:45.780Z,99596.94
2022-09-15T05:51:13.348Z,99595.50
2022-09-15T05:53:40.072Z,99594.75
2022-09-15T05:56:12.442Z,99593.94
2022-09-15T05:58:43.663Z,99596.47
2022-09-15T06:01:18.009Z,99593.31
2022-09-15T06:03:44.925Z,99584.63
2022-09-15T06:06:12.189Z,99590.78
2022-09-15T06:08:44.265Z,99586.97
2022-09-15T06:11:16.721Z,99593.88
2022-09-15T06:13:44.050Z,99595.81
2022-09-15T06:16:13.770Z,99582.41
2022-09-15T06:18:41.469Z,99589.97
2022-09-15T06:21:16.393Z,99600.22
2022-09-15T06:23:46.030Z,99597.59
2022-09-15T06:26:19.043Z,99603.34
2022-09-15T06:28:50.778Z,99607.13
2022-09-15T06:31:18.244Z,99598.38
2022-09-15T06:33:48.078Z,99600.44
2022-09-15T06:36:15.806Z,99604.22
2022-09-15T06:38:43.425Z,99604.47
2022-09-15T06:41:10.895Z,99609.38
2022-09-15T06:43:38.256Z,99607.09
2022-09-15T06:46:19.673Z,99609.88
2022-09-15T06:48:48.456Z,99607.88
2022-09-15T06:51:17.045Z,99618.13
2022-09-15T06:53:44.023Z,99616.78
2022-09-15T06:56:15.754Z,99620.38
2022-09-15T06:58:43.293Z,99628.06
2022-09-15T07:01:12.630Z,99626.66
2022-09-15T07:03:41.493Z,99631.53
2022-09-15T07:06:08.900Z,99631.56
2022-09-15T07:08:35.431Z,99635.94
2022-09-15T07:11:02.034Z,99637.00
2022-09-15T07:13:28.443Z,99639.94
2022-09-15T07:16:00.141Z,99630.94
2022-09-15T07:18:27.483Z,99630.63
2022-09-15T07:20:59.227Z,99640.72
2022-09-15T07:23:26.136Z,99641.03
2022-09-15T07:25:52.509Z,99638.59
2022-09-15T07:28:19.131Z,99634.94
2022-09-15T07:30:50.346Z,99644.72
2022-09-15T07:33:16.734Z,99643.31
2022-09-15T07:35:44.326Z,99643.94
2022-09-15T07:38:10.956Z,99640.19
2022-09-15T07:40:38.470Z,99648.72
2022-09-15T07:43:05.946Z,99645.59
2022-09-15T07:45:33.321Z,99652.56
2022-09-15T07:47:59.776Z,99656.53
2022-09-15T07:50:26.175Z,99660.13
2022-09-15T07:52:56.046Z,99660.22
2022-09-15T07:55:23.148Z,99655.44
2022-09-15T07:58:03.190Z,99660.03
2022-09-15T08:00:29.861Z,99657.56
2022-09-15T08:02:56.396Z,99657.53
2022-09-15T08:05:27.969Z,99660.19
2022-09-15T08:07:57.537Z,99653.22
2022-09-15T08:10:25.232Z,99656.38
2022-09-15T08:12:52.370Z,99660.81
2022-09-15T08:15:19.003Z,99657.47
2022-09-15T08:17:46.494Z,99660.22
2022-09-15T08:20:13.922Z,99655.91
2022-09-15T08:22:41.148Z,99666.38
2022-09-15T08:25:08.034Z,99664.19
2022-09-15T08:27:34.420Z,99662.75
2022-09-15T08:30:00.935Z,99665.28
2022-09-15T08:32:27.307Z,99665.25
2022-09-15T08:34:53.799Z,99676.41
2022-09-15T08:37:20.382Z,99672.34
2022-09-15T08:39:48.034Z,99677.75
2022-09-15T08:42:24.010Z,99674.59
2022-09-15T08:44:57.508Z,99676.72
2022-09-15T08:47:41.916Z,99681.22
2022-09-15T08:50:31.008Z,99675.16
2022-09-15T08:53:06.765Z,99676.19
2022-09-15T08:55:43.699Z,99679.16
2022-09-15T08:58:28.556Z,99676.75
2022-09-15T09:01:02.874Z,99681.84
2022-09-15T09:03:35.461Z,99683.09
2022-09-15T09:06:20.224Z,99683.94
2022-09-15T09:09:14.487Z,99679.03
2022-09-15T09:12:06.120Z,99676.44
2022-09-15T09:14:47.004Z,99679.63
2022-09-15T09:17:22.197Z,99690.19
2022-09-15T09:20:03.625Z,99688.47
2022-09-15T09:22:35.757Z,99686.47
2022-09-15T09:25:11.878Z,99691.47
2022-09-15T09:27:50.816Z,99690.47
2022-09-15T09:30:19.771Z,99683.97
2022-09-15T09:33:10.636Z,99681.75
2022-09-15T09:35:44.931Z,99688.53
2022-09-15T09:38:15.741Z,99685.63
2022-09-15T09:40:43.023Z,99673.56
2022-09-15T09:43:10.403Z,99666.00
2022-09-15T09:45:37.050Z,99676.75
2022-09-15T09:48:15.160Z,99670.53
2022-09-15T09:50:45.921Z,99667.63
2022-09-15T09:53:25.206Z,99662.75
2022-09-15T09:55:54.948Z,99661.25
2022-09-15T09:58:24.317Z,99663.97
2022-09-15T10:00:52.671Z,99668.31
2022-09-15T10:03:29.430Z,99671.53
2022-09-15T10:06:11.684Z,99666.63
2022-09-15T10:08:55.903Z,99667.97
2022-09-15T10:11:38.173Z,99663.91
2022-09-15T10:14:04.678Z,99657.91
2022-09-15T10:16:32.647Z,99648.78
2022-09-15T10:18:59.317Z,99646.81
2022-09-15T10:21:26.060Z,99657.13
2022-09-15T10:23:52.584Z,99650.53
2022-09-15T10:26:20.859Z,99661.03
2022-09-15T10:31:37.726Z,99645.22
2022-09-15T10:34:27.655Z,99648.16
2022-09-15T10:37:00.418Z,99629.13
2022-09-15T10:39:45.877Z,99626.00
2022-09-15T10:42:29.816Z,99627.50
2022-09-15T10:45:05.250Z,99635.78
2022-09-15T10:47:57.344Z,99621.34
2022-09-15T10:50:26.849Z,99631.88
2022-09-15T10:53:13.414Z,99628.50
2022-09-15T10:55:53.292Z,99632.72
2022-09-15T10:58:32.206Z,99634.34
2022-09-15T11:01:21.937Z,99629.94
2022-09-15T11:04:21.159Z,99629.38
2022-09-15T11:07:05.456Z,99624.03
2022-09-15T11:09:45.610Z,99641.25
2022-09-15T11:12:43.454Z,99632.06
2022-09-15T11:15:51.121Z,99640.00
2022-09-15T11:18:23.292Z,99629.78
2022-09-15T11:21:03.892Z,99635.59
2022-09-15T11:23:43.032Z,99645.66
2022-09-15T11:26:24.362Z,99648.09
2022-09-15T11:29:05.392Z,99650.78
2022-09-15T11:31:39.602Z,99644.47
2022-09-15T11:34:17.770Z,99647.78
2022-09-15T11:36:54.769Z,99651.19
2022-09-15T11:39:29.347Z,99650.88
2022-09-15T11:42:25.049Z,99659.00
2022-09-15T11:44:51.718Z,99649.94
2022-09-15T11:47:26.906Z,99658.09
2022-09-15T11:49:58.484Z,99657.00
2022-09-15T11:52:48.917Z,99659.38
2022-09-15T11:55:28.277Z,99668.47
2022-09-15T11:58:01.820Z,99659.59
2022-09-15T12:00:28.424Z,99661.69
2022-09-15T12:03:23.269Z,99673.72
2022-09-15T12:05:56.227Z,99669.56
2022-09-15T12:08:33.740Z,99676.03
2022-09-15T12:11:02.418Z,99678.16
2022-09-15T12:13:30.345Z,99671.06
2022-09-15T12:15:57.553Z,99674.84
2022-09-15T12:18:39.837Z,99672.97
2022-09-15T12:21:26.919Z,99676.53
2022-09-15T12:24:30.944Z,99666.00
2022-09-15T12:27:00.895Z,99673.09
2022-09-15T12:29:27.214Z,99666.56
2022-09-15T12:32:18.521Z,99666.50
2022-09-15T12:35:16.325Z,99664.06
2022-09-15T12:37:46.648Z,99649.44
2022-09-15T12:40:29.842Z,99654.94
2022-09-15T12:43:02.482Z,99655.66
2022-09-15T12:45:36.163Z,99663.44
2022-09-15T12:48:18.945Z,99651.56
2022-09-15T12:51:01.577Z,99647.47
2022-09-15T12:56:06.911Z,99652.44
2022-09-15T12:58:45.542Z,99661.09
2022-09-15T13:01:44.240Z,99650.88
2022-09-15T13:04:26.882Z,99664.19
2022-09-15T13:07:15.228Z,99667.13
2022-09-15T13:09:55.999Z,99669.19
2022-09-15T13:12:29.799Z,99657.63
2022-09-15T13:14:56.959Z,99665.63
2022-09-15T13:17:25.638Z,99660.97
2022-09-15T13:19:59.746Z,99664.56
2022-09-15T13:22:41.289Z,99665.78
2022-09-15T13:25:10.779Z,99662.06
2022-09-15T13:27:40.939Z,99664.66
2022-09-15T13:30:10.315Z,99663.84
2022-09-15T13:32:46.771Z,99655.25
2022-09-15T13:35:33.761Z,99660.41
2022-09-15T13:38:31.912Z,99662.59
2022-09-15T13:41:18.049Z,99655.34
2022-09-15T13:44:16.700Z,99652.31
2022-09-15T13:47:01.129Z,99646.09
2022-09-15T13:49:54.926Z,99651.63
2022-09-15T13:52:41.897Z,99646.88
2022-09-15T13:55:14.414Z,99650.81
2022-09-15T14:00:43.757Z,99656.81
2022-09-15T14:03:16.252Z,99644.97
2022-09-15T14:05:43.342Z,99656.72
2022-09-15T14:08:17.332Z,99654.50
2022-09-15T14:11:13.005Z,99644.50
2022-09-15T14:13:44.894Z,99644.59
2022-09-15T14:16:33.913Z,99640.75
2022-09-15T14:19:02.550Z,99649.50
2022-09-15T14:21:32.402Z,99645.09
2022-09-15T14:24:04.332Z,99650.25
2022-09-15T14:26:33.394Z,99656.56
2022-09-15T14:29:02.039Z,99649.47
2022-09-15T14:31:31.510Z,99653.16
2022-09-15T14:33:58.321Z,99649.78
2022-09-15T14:36:33.825Z,99644.97
2022-09-15T14:39:12.114Z,99647.44
2022-09-15T14:41:40.018Z,99647.16
2022-09-15T14:47:26.739Z,99657.63
2022-09-15T14:50:19.767Z,99657.72
2022-09-15T14:53:14.065Z,99661.16
2022-09-15T14:55:52.891Z,99651.25
2022-09-15T14:58:29.877Z,99636.81
2022-09-15T15:01:30.291Z,99644.59
2022-09-15T15:04:19.902Z,99646.41
2022-09-15T15:07:04.190Z,99635.09
2022-09-15T15:09:58.994Z,99637.53
2022-09-15T15:12:40.519Z,99637.00
2022-09-15T15:15:10.773Z,99642.78
2022-09-15T15:17:49.702Z,99635.03
2022-09-15T15:20:23.094Z,99629.72
2022-09-15T15:23:18.975Z,99632.66
2022-09-15T15:25:46.998Z,99640.16
2022-09-15T15:28:32.726Z,99649.06
2022-09-15T15:31:12.201Z,99642.81
2022-09-15T15:33:45.995Z,99640.56
2022-09-15T15:36:12.465Z,99642.78
2022-09-15T15:38:47.520Z,99640.75
2022-09-15T15:41:26.766Z,99631.19
2022-09-15T15:44:27.022Z,99648.31
2022-09-15T15:47:23.603Z,99642.31
2022-09-15T15:50:12.414Z,99641.03
2022-09-15T15:52:41.392Z,99632.84
2022-09-15T15:55:08.481Z,99640.22
2022-09-15T15:57:38.798Z,99646.50
2022-09-15T16:00:21.639Z,99645.75
2022-09-15T16:02:50.116Z,99644.19
2022-09-15T16:05:17.031Z,99648.94
2022-09-15T16:07:45.940Z,99647.81
2022-09-15T16:10:21.576Z,99641.44
2022-09-15T16:12:48.114Z,99642.56
2022-09-15T16:15:17.700Z,99638.03
2022-09-15T16:17:46.854Z,99640.66
2022-09-15T16:20:15.983Z,99649.47
2022-09-15T16:22:43.364Z,99639.44
2022-09-15T16:25:28.080Z,99647.94
2022-09-15T16:27:54.839Z,99638.75
2022-09-15T16:30:21.260Z,99648.50
2022-09-15T16:32:47.733Z,99649.16
2022-09-15T16:35:21.781Z,99652.53
2022-09-15T16:37:48.238Z,99655.13
2022-09-15T16:40:14.817Z,99655.91
2022-09-15T16:42:41.247Z,99658.41
2022-09-15T16:45:21.330Z,99656.66
2022-09-15T16:47:47.737Z,99661.69
2022-09-15T16:50:14.202Z,99676.06
2022-09-15T16:52:40.574Z,99672.72
2022-09-15T16:55:16.924Z,99673.59
2022-09-15T16:57:43.337Z,99677.22
2022-09-15T17:00:10.464Z,99686.31
2022-09-15T17:02:36.892Z,99681.06
2022-09-15T17:05:03.465Z,99683.44
2022-09-15T17:07:29.873Z,99681.91
2022-09-15T17:09:56.458Z,99678.75
2022-09-15T17:12:23.393Z,99685.13
2022-09-15T17:14:49.746Z,99692.34
2022-09-15T17:17:25.879Z,99695.38
2022-09-15T17:19:52.259Z,99689.81
2022-09-15T17:22:18.651Z,99707.72
2022-09-15T17:24:45.070Z,99699.66
2022-09-15T17:27:11.561Z,99707.47
2022-09-15T17:29:37.936Z,99705.91
2022-09-15T17:32:04.456Z,99703.38
2022-09-15T17:34:30.888Z,99709.59
2022-09-15T17:36:57.269Z,99704.81
2022-09-15T17:39:23.737Z,99705.78
2022-09-15T17:41:50.215Z,99699.88
2022-09-15T17:44:16.889Z,99696.84
2022-09-15T17:46:43.375Z,99701.09
2022-09-15T17:49:09.877Z,99698.13
2022-09-15T17:51:36.344Z,99698.56
2022-09-15T17:54:02.846Z,99699.72
2022-09-15T17:56:29.223Z,99699.53
2022-09-15T17:58:55.660Z,99700.91
2022-09-15T18:01:22.716Z,99699.75
2022-09-15T18:03:49.994Z,99705.63
2022-09-15T18:06:16.424Z,99701.94
2022-09-15T18:08:43.053Z,99699.59
2022-09-15T18:11:13.577Z,99709.00
2022-09-15T18:13:40.018Z,99705.63
2022-09-15T18:16:12.202Z,99706.97
2022-09-15T18:18:40.360Z,99706.63
2022-09-15T18:21:09.628Z,99710.66
2022-09-15T18:23:39.434Z,99719.41
2022-09-15T18:26:05.933Z,99712.88
2022-09-15T18:28:32.390Z,99712.38
2022-09-15T18:30:58.919Z,99713.03
2022-09-15T18:33:26.158Z,99718.34
2022-09-15T18:35:54.933Z,99719.75
2022-09-15T18:38:22.690Z,99724.63
2022-09-15T18:40:53.194Z,99728.13
2022-09-15T18:43:20.721Z,99721.06
2022-09-15T18:45:48.177Z,99716.69
2022-09-15T18:48:14.714Z,99723.47
2022-09-15T18:50:43.413Z,99729.31
2022-09-15T18:53:10.197Z,99727.50
2022-09-15T18:55:36.641Z,99727.25
2022-09-15T18:58:03.124Z,99731.97
2022-09-15T19:00:30.081Z,99723.91
2022-09-15T19:02:58.824Z,99738.13
2022-09-15T19:05:25.966Z,99745.31
2022-09-15T19:07:52.845Z,99744.84
2022-09-15T19:10:19.584Z,99748.63
2022-09-15T19:12:45.986Z,99736.19
2022-09-15T19:15:13.604Z,99752.69
2022-09-15T19:17:41.169Z,99744.19
2022-09-15T19:20:09.816Z,99747.81
2022-09-15T19:22:37.108Z,99744.06
2022-09-15T19:25:05.306Z,99745.94
2022-09-15T19:27:32.324Z,99756.69
2022-09-15T19:29:58.885Z,99756.50
2022-09-15T19:32:25.539Z,99745.47
2022-09-15T19:34:52.216Z,99755.91
2022-09-15T19:37:20.347Z,99752.75
2022-09-15T19:39:48.066Z,99753.66
2022-09-15T19:44:42.272Z,99752.91
2022-09-15T19:47:09.434Z,99762.22
2022-09-15T19:49:35.927Z,99762.38
2022-09-15T19:52:02.406Z,99772.34
2022-09-15T19:54:30.407Z,99776.28
2022-09-15T19:56:57.429Z,99768.22
2022-09-15T19:59:28.712Z,99762.38
2022-09-15T20:01:57.683Z,99771.66
2022-09-15T20:04:24.200Z,99772.09
2022-09-15T20:06:50.648Z,99767.28
2022-09-15T20:09:17.617Z,99772.28
2022-09-15T20:11:44.202Z,99771.72
2022-09-15T20:14:10.675Z,99780.13
2022-09-15T20:16:37.215Z,99777.06
2022-09-15T20:19:04.795Z,99781.47
2022-09-15T20:21:49.136Z,99782.75
2022-09-15T20:24:17.775Z,99782.53
2022-09-15T20:26:44.233Z,99794.47
2022-09-15T20:29:11.712Z,99790.59
2022-09-15T20:31:38.289Z,99797.19
2022-09-15T20:34:05.107Z,99800.53
2022-09-15T20:36:35.451Z,99797.44
2022-09-15T20:39:08.646Z,99793.91
2022-09-15T20:41:35.374Z,99794.41
2022-09-15T20:44:02.045Z,99792.13
2022-09-15T20:46:31.385Z,99788.94
2022-09-15T20:48:57.815Z,99796.38
2022-09-15T20:51:27.783Z,99801.19
2022-09-15T20:53:56.524Z,99796.88
2022-09-15T20:56:25.629Z,99797.16
2022-09-15T20:58:53.856Z,99793.50
2022-09-15T21:01:23.286Z,99800.34
2022-09-15T21:03:50.361Z,99794.09
2022-09-15T21:06:22.711Z,99798.44
2022-09-15T21:08:49.966Z,99810.97
2022-09-15T21:11:19.409Z,99808.66
2022-09-15T21:13:47.118Z,99813.91
2022-09-15T21:16:16.148Z,99807.03
2022-09-15T21:18:44.393Z,99812.09
2022-09-15T21:21:16.646Z,99813.53
2022-09-15T21:23:58.599Z,99809.03
2022-09-15T21:26:27.656Z,99807.22
2022-09-15T21:28:55.640Z,99807.53
2022-09-15T21:31:26.063Z,99811.78
2022-09-15T21:33:54.153Z,99817.81
2022-09-15T21:36:23.798Z,99821.06
2022-09-15T21:38:53.019Z,99818.25
2022-09-15T21:41:22.408Z,99816.41
2022-09-15T21:43:53.028Z,99808.59
2022-09-15T21:46:20.683Z,99828.94
2022-09-15T21:48:48.651Z,99824.50
2022-09-15T21:51:24.200Z,99826.53
2022-09-15T21:53:52.883Z,99825.22
2022-09-15T21:56:19.492Z,99825.88
2022-09-15T21:58:46.175Z,99833.56
2022-09-15T22:01:25.193Z,99827.22
2022-09-15T22:04:03.336Z,99835.53
2022-09-15T22:06:32.355Z,99831.44
2022-09-15T22:09:04.801Z,99835.66
2022-09-15T22:11:31.593Z,99843.63
2022-09-15T22:13:58.058Z,99838.97
2022-09-15T22:16:25.258Z,99844.94
2022-09-15T22:18:52.121Z,99838.44
2022-09-15T22:21:24.234Z,99832.75
2022-09-15T22:23:52.175Z,99838.53
2022-09-15T22:26:27.202Z,99838.50
2022-09-15T22:28:54.588Z,99840.41
2022-09-15T22:31:22.223Z,99838.13
2022-09-15T22:33:48.893Z,99839.84
2022-09-15T22:36:17.636Z,99840.50
2022-09-15T22:38:44.611Z,99838.75
2022-09-15T22:41:13.632Z,99829.69
2022-09-15T22:43:41.864Z,99834.41
2022-09-15T22:46:09.244Z,99838.13
2022-09-15T22:48:39.756Z,99834.97
2022-09-15T22:51:10.164Z,99831.50
2022-09-15T22:53:36.646Z,99835.69
2022-09-15T22:56:09.818Z,99839.53
2022-09-15T22:58:37.013Z,99830.13
2022-09-15T23:01:18.328Z,99831.53
2022-09-15T23:03:47.504Z,99834.88
2022-09-15T23:06:14.392Z,99832.22
2022-09-15T23:08:40.806Z,99832.63
2022-09-15T23:11:12.821Z,99834.75
2022-09-15T23:13:40.765Z,99836.31
2022-09-15T23:16:09.411Z,99834.63
2022-09-15T23:18:36.535Z,99831.44
2022-09-15T23:21:07.257Z,99825.47
2022-09-15T23:23:35.766Z,99829.81
2022-09-15T23:26:03.748Z,99834.06
2022-09-15T23:28:30.795Z,99835.13
2022-09-15T23:30:58.368Z,99829.81
2022-09-15T23:33:26.310Z,99830.81
2022-09-15T23:35:53.248Z,99829.63
2022-09-15T23:38:20.785Z,99830.13
2022-09-15T23:40:49.734Z,99827.44
2022-09-15T23:43:16.735Z,99829.69
2022-09-15T23:45:44.491Z,99830.25
2022-09-15T23:48:11.425Z,99831.22
2022-09-15T23:50:39.088Z,99832.50
2022-09-15T23:53:06.380Z,99830.56
2022-09-15T23:55:32.849Z,99834.63
2022-09-15T23:57:59.356Z,99832.78
